createdAt,value
2023-04-05T00:00:13.779Z,0.00
2023-04-05T00:01:13.691Z,0.00
2023-04-05T00:02:14.662Z,0.00
2023-04-05T00:04:14.049Z,0.16
2023-04-05T00:05:14.083Z,0.16
2023-04-05T00:06:13.243Z,0.00
2023-04-05T00:07:13.687Z,0.00
2023-04-05T00:08:13.782Z,0.00
2023-04-05T00:09:13.998Z,0.00
2023-04-05T00:10:13.346Z,0.00
2023-04-05T00:11:13.643Z,0.00
2023-04-05T00:12:13.747Z,0.00
2023-04-05T00:13:14.156Z,0.00
2023-04-05T00:14:13.296Z,0.00
2023-04-05T00:15:13.274Z,0.00
2023-04-05T00:16:13.620Z,0.00
2023-04-05T00:17:13.703Z,0.00
2023-04-05T00:18:13.857Z,0.00
2023-04-05T00:19:13.102Z,0.00
2023-04-05T00:20:13.092Z,0.00
2023-04-05T00:21:13.062Z,0.00
2023-04-05T00:22:13.044Z,0.00
2023-04-05T00:23:13.066Z,0.00
2023-04-05T00:24:13.403Z,0.00
2023-04-05T00:25:13.628Z,0.00
2023-04-05T00:26:13.549Z,0.00
2023-04-05T00:27:13.641Z,0.00
2023-04-05T00:28:13.880Z,0.00
2023-04-05T00:29:12.786Z,0.00
2023-04-05T00:30:13.750Z,0.00
2023-04-05T00:31:14.017Z,0.00
2023-04-05T00:32:13.119Z,0.00
2023-04-05T00:33:13.230Z,0.00
2023-04-05T00:34:13.219Z,0.00
2023-04-05T00:35:13.256Z,0.00
2023-04-05T00:36:14.646Z,0.00
2023-04-05T00:37:13.989Z,0.00
2023-04-05T00:38:13.140Z,0.00
2023-04-05T00:39:13.064Z,0.00
2023-04-05T00:40:13.032Z,0.00
2023-04-05T00:41:13.174Z,0.00
2023-04-05T00:42:13.016Z,0.00
2023-04-05T00:43:12.946Z,0.00
2023-04-05T00:44:12.864Z,0.00
2023-04-05T00:45:13.739Z,0.00
2023-04-05T00:46:14.040Z,0.00
2023-04-05T00:47:13.012Z,0.00
2023-04-05T00:48:12.952Z,0.00
2023-04-05T00:49:13.037Z,0.00
2023-04-05T00:50:12.950Z,0.00
2023-04-05T00:51:12.838Z,0.00
2023-04-05T00:52:13.881Z,0.00
2023-04-05T00:53:13.033Z,0.00
2023-04-05T00:54:13.034Z,0.00
2023-04-05T00:55:13.021Z,0.00
2023-04-05T00:56:13.058Z,0.00
2023-04-05T00:57:13.186Z,0.00
2023-04-05T00:58:13.270Z,0.00
2023-04-05T00:59:13.562Z,0.00
2023-04-05T01:00:13.541Z,0.00
2023-04-05T01:01:13.604Z,0.00
2023-04-05T01:02:13.923Z,0.00
2023-04-05T01:03:12.920Z,0.00
2023-04-05T01:04:13.243Z,0.00
2023-04-05T01:05:13.428Z,0.00
2023-04-05T01:06:14.919Z,0.00
2023-04-05T01:07:13.390Z,0.00
2023-04-05T01:08:13.590Z,0.00
2023-04-05T01:09:13.820Z,0.00
2023-04-05T01:10:14.035Z,0.00
2023-04-05T01:11:13.088Z,0.00
2023-04-05T01:12:13.018Z,0.00
2023-04-05T01:13:13.611Z,0.00
2023-04-05T01:14:13.657Z,0.00
2023-04-05T01:15:13.648Z,0.00
2023-04-05T01:16:13.733Z,0.00
2023-04-05T01:17:13.889Z,0.00
2023-04-05T01:18:12.929Z,0.00
2023-04-05T01:19:12.944Z,0.00
2023-04-05T01:20:12.857Z,0.00
2023-04-05T01:21:13.936Z,0.00
2023-04-05T01:22:12.918Z,0.04
2023-04-05T01:23:12.972Z,0.00
2023-04-05T01:24:13.041Z,0.00
2023-04-05T01:25:13.019Z,0.00
2023-04-05T01:26:13.040Z,0.00
2023-04-05T01:27:12.941Z,0.00
2023-04-05T01:28:12.836Z,0.00
2023-04-05T01:29:13.805Z,0.00
2023-04-05T01:30:13.946Z,0.00
2023-04-05T01:31:12.773Z,0.00
2023-04-05T01:32:13.914Z,0.00
2023-04-05T01:33:12.835Z,0.00
2023-04-05T01:34:13.778Z,0.00
2023-04-05T01:35:13.754Z,0.00
2023-04-05T01:36:14.030Z,0.00
2023-04-05T01:37:13.025Z,0.00
2023-04-05T01:38:12.949Z,0.00
2023-04-05T01:39:12.816Z,0.00
2023-04-05T01:40:13.868Z,0.00
2023-04-05T01:41:13.716Z,0.00
2023-04-05T01:42:13.937Z,0.00
2023-04-05T01:43:13.133Z,0.00
2023-04-05T01:44:13.111Z,0.00
2023-04-05T01:45:13.016Z,0.00
2023-04-05T01:46:12.965Z,0.00
2023-04-05T01:47:13.389Z,0.00
2023-04-05T01:48:13.458Z,0.00
2023-04-05T01:49:14.050Z,0.00
2023-04-05T01:50:12.979Z,0.00
2023-04-05T01:51:12.908Z,0.00
2023-04-05T01:52:13.509Z,0.00
2023-04-05T01:53:13.588Z,0.00
2023-04-05T01:54:13.890Z,0.00
2023-04-05T01:55:12.960Z,0.00
2023-04-05T01:56:12.925Z,0.00
2023-04-05T01:57:13.325Z,0.00
2023-04-05T01:58:13.596Z,0.00
2023-04-05T01:59:13.479Z,0.00
2023-04-05T02:00:13.554Z,0.00
2023-04-05T02:01:13.648Z,0.00
2023-04-05T02:02:13.766Z,0.00
2023-04-05T02:03:13.645Z,0.00
2023-04-05T02:04:13.697Z,0.00
2023-04-05T02:05:14.026Z,0.00
2023-04-05T02:06:12.960Z,0.00
2023-04-05T02:07:12.936Z,0.00
2023-04-05T02:08:13.091Z,0.00
2023-04-05T02:09:13.238Z,0.00
2023-04-05T02:10:13.234Z,0.00
2023-04-05T02:11:13.329Z,0.00
2023-04-05T02:12:13.232Z,0.00
2023-04-05T02:13:13.492Z,0.00
2023-04-05T02:14:13.383Z,0.00
2023-04-05T02:15:13.282Z,0.00
2023-04-05T02:16:13.564Z,0.00
2023-04-05T02:17:13.426Z,0.00
2023-04-05T02:18:13.409Z,0.00
2023-04-05T02:19:13.271Z,0.00
2023-04-05T02:20:13.281Z,0.00
2023-04-05T02:21:13.370Z,0.00
2023-04-05T02:22:13.322Z,0.00
2023-04-05T02:23:13.920Z,0.00
2023-04-05T02:24:12.944Z,0.00
2023-04-05T02:25:13.019Z,0.00
2023-04-05T02:26:13.258Z,0.00
2023-04-05T02:27:13.653Z,0.00
2023-04-05T02:28:13.937Z,0.00
2023-04-05T02:29:13.202Z,0.00
2023-04-05T02:30:13.111Z,0.00
2023-04-05T02:31:12.990Z,0.00
2023-04-05T02:32:13.097Z,0.00
2023-04-05T02:33:13.167Z,0.00
2023-04-05T02:34:13.526Z,0.00
2023-04-05T02:35:13.456Z,0.00
2023-04-05T02:36:13.381Z,0.00
2023-04-05T02:37:13.385Z,0.00
2023-04-05T02:38:13.662Z,0.00
2023-04-05T02:39:13.683Z,0.00
2023-04-05T02:40:13.864Z,0.00
2023-04-05T02:41:14.256Z,0.00
2023-04-05T02:42:13.285Z,0.00
2023-04-05T02:43:13.299Z,0.00
2023-04-05T02:44:13.318Z,0.00
2023-04-05T02:45:13.631Z,0.00
2023-04-05T02:46:13.529Z,0.00
2023-04-05T02:47:13.438Z,0.00
2023-04-05T02:48:13.629Z,0.00
2023-04-05T02:49:13.855Z,0.00
2023-04-05T02:50:13.740Z,0.00
2023-04-05T02:51:13.673Z,0.00
2023-04-05T02:52:13.643Z,0.00
2023-04-05T02:53:13.588Z,0.00
2023-04-05T02:54:14.048Z,0.00
2023-04-05T02:55:13.274Z,0.00
2023-04-05T02:56:13.187Z,0.00
2023-04-05T02:57:13.011Z,0.00
2023-04-05T02:58:12.922Z,0.00
2023-04-05T02:59:12.856Z,0.00
2023-04-05T03:00:13.810Z,0.00
2023-04-05T03:01:14.208Z,0.00
2023-04-05T03:02:13.289Z,0.00
2023-04-05T03:03:13.470Z,0.00
2023-04-05T03:04:13.602Z,0.00
2023-04-05T03:05:13.519Z,0.00
2023-04-05T03:06:13.373Z,0.00
2023-04-05T03:07:13.318Z,0.00
2023-04-05T03:08:13.370Z,0.00
2023-04-05T03:09:13.588Z,0.00
2023-04-05T03:10:13.623Z,0.00
2023-04-05T03:11:13.469Z,0.00
2023-04-05T03:12:13.433Z,0.00
2023-04-05T03:13:13.398Z,0.00
2023-04-05T03:14:13.310Z,0.00
2023-04-05T03:15:13.417Z,0.00
2023-04-05T03:16:13.955Z,0.00
2023-04-05T03:17:12.822Z,0.00
2023-04-05T03:18:13.990Z,0.00
2023-04-05T03:19:13.356Z,0.00
2023-04-05T03:20:13.299Z,0.00
2023-04-05T03:21:13.336Z,0.00
2023-04-05T03:22:13.142Z,0.00
2023-04-05T03:23:13.425Z,0.00
2023-04-05T03:24:13.735Z,0.00
2023-04-05T03:25:13.601Z,0.00
2023-04-05T03:26:13.872Z,0.00
2023-04-05T03:27:12.834Z,0.00
2023-04-05T03:28:13.734Z,0.00
2023-04-05T03:29:13.849Z,0.00
2023-04-05T03:30:13.713Z,0.00
2023-04-05T03:31:13.983Z,0.00
2023-04-05T03:32:13.156Z,0.00
2023-04-05T03:33:13.139Z,0.00
2023-04-05T03:34:13.063Z,0.00
2023-04-05T03:35:13.029Z,0.00
2023-04-05T03:36:13.224Z,0.00
2023-04-05T03:37:13.592Z,0.00
2023-04-05T03:38:13.728Z,0.00
2023-04-05T03:39:14.376Z,0.00
2023-04-05T03:40:13.453Z,0.00
2023-04-05T03:41:13.682Z,0.04
2023-04-05T03:42:13.767Z,0.00
2023-04-05T03:43:14.086Z,0.00
2023-04-05T03:44:13.526Z,0.12
2023-04-05T03:45:13.888Z,0.00
2023-04-05T03:46:14.359Z,0.00
2023-04-05T03:47:13.281Z,0.00
2023-04-05T03:48:14.066Z,0.00
2023-04-05T03:49:13.714Z,0.00
2023-04-05T03:50:15.351Z,0.00
2023-04-05T03:51:13.251Z,0.00
2023-04-05T03:52:13.390Z,0.00
2023-04-05T03:53:13.412Z,0.00
2023-04-05T03:54:13.333Z,0.04
2023-04-05T03:55:13.249Z,0.00
2023-04-05T03:56:13.714Z,0.00
2023-04-05T03:57:13.917Z,0.00
2023-04-05T03:58:12.800Z,0.00
2023-04-05T03:59:13.763Z,0.00
2023-04-05T04:00:13.860Z,0.00
2023-04-05T04:01:15.155Z,0.00
2023-04-05T04:02:13.211Z,0.00
2023-04-05T04:03:13.224Z,0.24
2023-04-05T04:04:13.252Z,0.08
2023-04-05T04:05:13.097Z,0.00
2023-04-05T04:06:13.101Z,0.00
2023-04-05T04:07:13.185Z,0.00
2023-04-05T04:08:13.595Z,0.00
2023-04-05T04:09:13.602Z,0.00
2023-04-05T04:10:13.624Z,0.00
2023-04-05T04:11:13.699Z,0.00
2023-04-05T04:12:13.980Z,0.00
2023-04-05T04:13:13.304Z,0.00
2023-04-05T04:14:13.436Z,0.00
2023-04-05T04:15:13.320Z,0.00
2023-04-05T04:16:13.341Z,0.00
2023-04-05T04:17:13.224Z,0.00
2023-04-05T04:18:13.451Z,0.00
2023-04-05T04:19:14.201Z,0.00
2023-04-05T04:20:13.058Z,0.00
2023-04-05T04:21:12.924Z,0.00
2023-04-05T04:22:13.070Z,0.00
2023-04-05T04:23:13.128Z,0.00
2023-04-05T04:24:13.184Z,0.00
2023-04-05T04:25:13.273Z,0.00
2023-04-05T04:26:13.236Z,0.00
2023-04-05T04:27:13.149Z,0.00
2023-04-05T04:28:13.269Z,0.00
2023-04-05T04:29:13.291Z,0.00
2023-04-05T04:30:13.224Z,0.00
2023-04-05T04:31:13.347Z,0.00
2023-04-05T04:32:13.204Z,0.00
2023-04-05T04:33:13.487Z,0.00
2023-04-05T04:34:13.444Z,0.00
2023-04-05T04:35:13.521Z,0.00
2023-04-05T04:36:19.264Z,0.00
2023-04-05T04:37:13.217Z,0.00
2023-04-05T04:38:13.297Z,0.00
2023-04-05T04:39:13.154Z,0.00
2023-04-05T04:40:13.400Z,0.00
2023-04-05T04:41:13.439Z,0.00
2023-04-05T04:42:14.496Z,0.00
2023-04-05T04:43:13.830Z,0.00
2023-04-05T04:44:14.017Z,0.00
2023-04-05T04:45:12.871Z,0.00
2023-04-05T04:46:13.928Z,0.00
2023-04-05T04:47:13.591Z,0.00
2023-04-05T04:48:12.952Z,0.00
2023-04-05T04:49:14.022Z,0.00
2023-04-05T04:50:13.148Z,0.00
2023-04-05T04:51:13.208Z,0.00
2023-04-05T04:52:13.211Z,0.00
2023-04-05T04:53:13.387Z,0.00
2023-04-05T04:54:13.269Z,0.00
2023-04-05T04:55:13.230Z,0.00
2023-04-05T04:56:13.317Z,0.00
2023-04-05T04:57:13.283Z,0.00
2023-04-05T04:58:13.181Z,0.00
2023-04-05T04:59:13.317Z,0.00
2023-04-05T05:00:13.515Z,0.00
2023-04-05T05:01:13.654Z,0.00
2023-04-05T05:02:13.568Z,0.00
2023-04-05T05:03:13.577Z,0.00
2023-04-05T05:04:13.946Z,0.00
2023-04-05T05:05:12.872Z,0.00
2023-04-05T05:06:13.325Z,0.00
2023-04-05T05:07:13.171Z,0.00
2023-04-05T05:08:13.094Z,0.00
2023-04-05T05:09:13.147Z,0.00
2023-04-05T05:10:13.492Z,0.00
2023-04-05T05:11:13.435Z,0.00
2023-04-05T05:12:13.407Z,0.00
2023-04-05T05:13:13.252Z,0.00
2023-04-05T05:14:13.169Z,0.00
2023-04-05T05:15:12.987Z,0.00
2023-04-05T05:16:13.224Z,0.00
2023-04-05T05:17:13.177Z,0.00
2023-04-05T05:18:13.198Z,0.00
2023-04-05T05:19:13.134Z,0.00
2023-04-05T05:20:13.578Z,0.00
2023-04-05T05:21:18.623Z,0.00
2023-04-05T05:22:13.771Z,0.00
2023-04-05T05:23:14.079Z,0.00
2023-04-05T05:24:12.949Z,0.00
2023-04-05T05:25:12.988Z,0.00
2023-04-05T05:26:13.146Z,0.00
2023-04-05T05:27:13.574Z,0.00
2023-04-05T05:28:13.890Z,0.00
2023-04-05T05:29:13.090Z,0.00
2023-04-05T05:30:18.058Z,0.00
2023-04-05T05:31:13.731Z,0.00
2023-04-05T05:32:13.854Z,0.00
2023-04-05T05:33:13.863Z,0.00
2023-04-05T05:34:13.042Z,0.00
2023-04-05T05:35:13.082Z,0.00
2023-04-05T05:36:13.013Z,0.00
2023-04-05T05:37:12.871Z,0.00
2023-04-05T05:38:14.160Z,0.00
2023-04-05T05:39:12.987Z,0.00
2023-04-05T05:40:12.841Z,0.00
2023-04-05T05:41:13.958Z,0.00
2023-04-05T05:42:13.186Z,0.00
2023-04-05T05:43:13.293Z,0.00
2023-04-05T05:44:13.770Z,0.00
2023-04-05T05:45:13.636Z,0.00
2023-04-05T05:46:14.324Z,0.00
2023-04-05T05:47:13.320Z,0.00
2023-04-05T05:48:13.580Z,0.00
2023-04-05T05:49:13.847Z,0.00
2023-04-05T05:50:13.715Z,0.00
2023-04-05T05:51:13.621Z,0.00
2023-04-05T05:52:13.656Z,0.04
2023-04-05T05:53:13.756Z,0.80
2023-04-05T05:54:13.703Z,1.08
2023-04-05T05:55:13.652Z,0.00
2023-04-05T05:56:13.562Z,0.12
2023-04-05T05:57:13.647Z,0.48
2023-04-05T05:58:13.570Z,0.20
2023-04-05T05:59:13.927Z,0.00
2023-04-05T06:00:12.932Z,0.00
2023-04-05T06:01:13.624Z,0.00
2023-04-05T06:02:18.882Z,0.00
2023-04-05T06:03:13.536Z,0.00
2023-04-05T06:04:13.595Z,0.00
2023-04-05T06:05:13.713Z,0.00
2023-04-05T06:06:13.691Z,0.00
2023-04-05T06:07:13.859Z,0.00
2023-04-05T06:08:13.918Z,0.00
2023-04-05T06:09:12.883Z,0.00
2023-04-05T06:10:14.022Z,0.00
2023-04-05T06:11:13.309Z,0.00
2023-04-05T06:12:13.300Z,0.00
2023-04-05T06:13:13.373Z,0.00
2023-04-05T06:14:13.344Z,0.00
2023-04-05T06:15:13.402Z,0.00
2023-04-05T06:16:13.300Z,0.00
2023-04-05T06:17:13.236Z,0.00
2023-04-05T06:18:13.381Z,0.00
2023-04-05T06:19:13.255Z,0.00
2023-04-05T06:20:13.469Z,0.00
2023-04-05T06:21:13.424Z,0.00
2023-04-05T06:22:13.349Z,0.00
2023-04-05T06:23:13.369Z,0.00
2023-04-05T06:24:13.536Z,0.00
2023-04-05T06:25:13.736Z,0.00
2023-04-05T06:26:13.194Z,0.00
2023-04-05T06:27:13.108Z,0.00
2023-04-05T06:28:13.603Z,0.00
2023-04-05T06:29:14.271Z,0.00
2023-04-05T06:30:13.398Z,0.00
2023-04-05T06:31:13.407Z,0.00
2023-04-05T06:32:13.436Z,0.00
2023-04-05T06:33:13.419Z,0.04
2023-04-05T06:34:13.427Z,0.04
2023-04-05T06:35:18.454Z,0.00
2023-04-05T06:36:13.510Z,0.00
2023-04-05T06:37:13.971Z,0.00
2023-04-05T06:38:13.456Z,0.14
2023-04-05T06:39:13.370Z,0.00
2023-04-05T06:40:13.561Z,0.00
2023-04-05T06:41:13.413Z,0.28
2023-04-05T06:42:13.530Z,0.28
2023-04-05T06:43:13.510Z,0.04
2023-04-05T06:44:13.836Z,0.00
2023-04-05T06:45:13.945Z,0.08
2023-04-05T06:46:12.864Z,0.00
2023-04-05T06:47:14.059Z,0.00
2023-04-05T06:48:13.010Z,0.00
2023-04-05T06:49:12.981Z,0.00
2023-04-05T06:50:13.563Z,0.00
2023-04-05T06:51:13.845Z,0.00
2023-04-05T06:52:13.976Z,0.00
2023-04-05T06:53:12.880Z,0.00
2023-04-05T06:54:12.995Z,0.00
2023-04-05T06:55:12.954Z,0.00
2023-04-05T06:56:13.010Z,0.12
2023-04-05T06:57:13.063Z,0.04
2023-04-05T06:58:13.308Z,0.20
2023-04-05T06:59:13.298Z,1.00
2023-04-05T07:00:13.379Z,0.00
2023-04-05T07:01:13.706Z,0.00
2023-04-05T07:02:13.900Z,0.04
2023-04-05T07:03:13.225Z,0.00
2023-04-05T07:04:13.326Z,0.00
2023-04-05T07:05:13.323Z,0.08
2023-04-05T07:06:13.325Z,0.44
2023-04-05T07:07:13.241Z,0.68
2023-04-05T07:08:13.048Z,0.36
2023-04-05T07:09:13.344Z,0.00
2023-04-05T07:10:13.641Z,0.56
2023-04-05T07:11:13.708Z,0.24
2023-04-05T07:12:13.569Z,0.08
2023-04-05T07:13:13.492Z,0.12
2023-04-05T07:14:13.432Z,0.56
2023-04-05T07:15:13.367Z,0.00
2023-04-05T07:16:13.411Z,0.00
2023-04-05T07:17:13.373Z,0.00
2023-04-05T07:18:13.289Z,0.00
2023-04-05T07:19:13.320Z,0.00
2023-04-05T07:20:18.544Z,0.00
2023-04-05T07:21:13.599Z,0.00
2023-04-05T07:22:13.478Z,0.00
2023-04-05T07:23:13.388Z,0.00
2023-04-05T07:24:13.446Z,0.00
2023-04-05T07:25:13.374Z,0.00
2023-04-05T07:26:13.283Z,0.00
2023-04-05T07:27:13.247Z,0.00
2023-04-05T07:28:13.368Z,0.04
2023-04-05T07:29:13.379Z,0.00
2023-04-05T07:30:13.360Z,0.00
2023-04-05T07:31:13.188Z,0.00
2023-04-05T07:32:13.138Z,0.00
2023-04-05T07:33:13.518Z,0.00
2023-04-05T07:34:13.446Z,0.00
2023-04-05T07:35:13.702Z,0.00
2023-04-05T07:36:13.739Z,0.00
2023-04-05T07:37:13.631Z,0.00
2023-04-05T07:38:14.017Z,0.36
2023-04-05T07:39:13.225Z,0.64
2023-04-05T07:40:13.120Z,0.32
2023-04-05T07:41:13.236Z,0.76
2023-04-05T07:42:13.292Z,0.96
2023-04-05T07:43:13.335Z,1.48
2023-04-05T07:44:13.229Z,0.32
2023-04-05T07:45:13.128Z,0.44
2023-04-05T07:46:13.062Z,0.96
2023-04-05T07:47:13.015Z,0.88
2023-04-05T07:48:12.951Z,0.52
2023-04-05T07:49:13.206Z,0.36
2023-04-05T07:50:13.216Z,2.40
2023-04-05T07:51:13.373Z,0.36
2023-04-05T07:52:13.282Z,1.60
2023-04-05T07:53:13.313Z,0.76
2023-04-05T07:54:13.295Z,0.68
2023-04-05T07:55:13.234Z,1.76
2023-04-05T07:56:13.259Z,0.04
2023-04-05T07:57:13.264Z,0.04
2023-04-05T07:58:13.367Z,0.00
2023-04-05T07:59:14.911Z,2.44
2023-04-05T08:00:13.178Z,1.16
2023-04-05T08:01:13.174Z,2.04
2023-04-05T08:02:14.988Z,0.64
2023-04-05T08:03:13.701Z,0.00
2023-04-05T08:04:14.122Z,0.00
2023-04-05T08:05:13.209Z,0.56
2023-04-05T08:06:13.673Z,0.08
2023-04-05T08:07:13.844Z,2.32
2023-04-05T08:08:13.875Z,2.08
2023-04-05T08:09:14.047Z,0.64
2023-04-05T08:10:12.954Z,0.60
2023-04-05T08:11:12.960Z,4.64
2023-04-05T08:12:13.004Z,1.32
2023-04-05T08:13:13.286Z,1.40
2023-04-05T08:14:13.661Z,3.20
2023-04-05T08:15:13.811Z,2.40
2023-04-05T08:16:14.004Z,0.44
2023-04-05T08:17:13.083Z,0.52
2023-04-05T08:18:13.237Z,0.16
2023-04-05T08:19:15.577Z,0.32
2023-04-05T08:20:13.782Z,2.08
2023-04-05T08:21:18.874Z,2.60
2023-04-05T08:22:13.848Z,1.92
2023-04-05T08:23:14.112Z,1.76
2023-04-05T08:24:13.247Z,3.32
2023-04-05T08:25:13.641Z,4.84
2023-04-05T08:26:13.868Z,4.80
2023-04-05T08:27:13.895Z,1.00
2023-04-05T08:28:12.936Z,0.32
2023-04-05T08:29:13.037Z,0.64
2023-04-05T08:30:13.180Z,1.36
2023-04-05T08:31:13.959Z,0.32
2023-04-05T08:32:13.412Z,0.00
2023-04-05T08:33:13.517Z,0.00
2023-04-05T08:34:13.430Z,3.04
2023-04-05T08:35:13.419Z,2.68
2023-04-05T08:36:13.320Z,1.00
2023-04-05T08:37:13.598Z,0.32
2023-04-05T08:38:13.675Z,1.44
2023-04-05T08:39:14.935Z,4.32
2023-04-05T08:40:12.962Z,1.16
2023-04-05T08:41:12.945Z,0.32
2023-04-05T08:42:12.842Z,3.68
2023-04-05T08:43:14.036Z,2.44
2023-04-05T08:44:12.985Z,1.40
2023-04-05T08:45:12.938Z,1.16
2023-04-05T08:46:12.987Z,2.48
2023-04-05T08:47:13.020Z,1.84
2023-04-05T08:48:13.155Z,0.00
2023-04-05T08:49:13.605Z,0.04
2023-04-05T08:50:13.577Z,3.20
2023-04-05T08:51:13.481Z,3.08
2023-04-05T08:52:13.510Z,0.84
2023-04-05T08:53:13.711Z,0.16
2023-04-05T08:54:13.872Z,0.80
2023-04-05T08:55:19.001Z,2.04
2023-04-05T08:56:12.934Z,3.84
2023-04-05T08:57:13.094Z,2.36
2023-04-05T08:58:13.085Z,2.52
2023-04-05T08:59:13.122Z,1.68
2023-04-05T09:00:13.116Z,2.60
2023-04-05T09:01:13.111Z,3.44
2023-04-05T09:02:13.171Z,7.40
2023-04-05T09:03:13.676Z,4.04
2023-04-05T09:04:14.032Z,3.48
2023-04-05T09:05:13.174Z,2.12
2023-04-05T09:06:13.253Z,3.40
2023-04-05T09:07:13.538Z,3.72
2023-04-05T09:08:13.572Z,5.00
2023-04-05T09:09:13.864Z,7.28
2023-04-05T09:10:14.130Z,13.48
2023-04-05T09:11:13.130Z,16.80
2023-04-05T09:12:13.189Z,21.24
2023-04-05T09:13:13.266Z,15.00
2023-04-05T09:14:13.164Z,23.12
2023-04-05T09:15:13.302Z,6.32
2023-04-05T09:16:13.150Z,0.88
2023-04-05T09:17:13.097Z,2.56
2023-04-05T09:18:25.627Z,1.84
2023-04-05T09:19:13.222Z,0.52
2023-04-05T09:20:13.100Z,4.52
2023-04-05T09:21:12.908Z,6.64
2023-04-05T09:22:13.165Z,1.36
2023-04-05T09:23:13.181Z,2.00
2023-04-05T09:24:13.260Z,8.44
2023-04-05T09:25:13.456Z,2.00
2023-04-05T09:26:13.599Z,0.60
2023-04-05T09:27:13.842Z,8.60
2023-04-05T09:28:12.840Z,6.72
2023-04-05T09:29:13.876Z,2.00
2023-04-05T09:30:13.774Z,1.24
2023-04-05T09:31:13.858Z,2.12
2023-04-05T09:32:14.004Z,3.52
2023-04-05T09:33:13.137Z,5.12
2023-04-05T09:34:13.220Z,7.76
2023-04-05T09:35:13.173Z,2.24
2023-04-05T09:36:13.245Z,22.08
2023-04-05T09:37:13.310Z,16.20
2023-04-05T09:38:13.668Z,3.04
2023-04-05T09:39:13.646Z,2.20
2023-04-05T09:40:13.509Z,14.76
2023-04-05T09:41:13.573Z,15.28
2023-04-05T09:42:13.491Z,26.24
2023-04-05T09:43:13.437Z,13.52
2023-04-05T09:44:13.298Z,5.24
2023-04-05T09:45:13.379Z,10.60
2023-04-05T09:46:13.618Z,22.96
2023-04-05T09:47:13.493Z,25.12
2023-04-05T09:48:13.532Z,25.52
2023-04-05T09:49:13.464Z,10.68
2023-04-05T09:50:13.320Z,21.36
2023-04-05T09:51:13.523Z,20.52
2023-04-05T09:52:13.410Z,8.44
2023-04-05T09:53:13.483Z,11.80
2023-04-05T09:54:13.693Z,19.20
2023-04-05T09:55:13.782Z,9.40
2023-04-05T09:56:13.917Z,10.68
2023-04-05T09:57:12.974Z,24.28
2023-04-05T09:58:12.983Z,18.68
2023-04-05T09:59:12.991Z,5.00
2023-04-05T10:00:12.983Z,23.12
2023-04-05T10:01:17.151Z,12.76
2023-04-05T10:02:13.590Z,6.60
2023-04-05T10:03:13.601Z,2.60
2023-04-05T10:04:14.199Z,3.32
2023-04-05T10:05:13.116Z,2.12
2023-04-05T10:06:13.538Z,21.64
2023-04-05T10:07:13.826Z,6.84
2023-04-05T10:08:14.158Z,2.88
2023-04-05T10:09:13.309Z,2.48
2023-04-05T10:10:13.556Z,5.56
2023-04-05T10:11:13.875Z,2.36
2023-04-05T10:12:13.746Z,5.60
2023-04-05T10:13:13.743Z,3.68
2023-04-05T10:14:13.756Z,9.20
2023-04-05T10:15:13.761Z,5.20
2023-04-05T10:16:13.782Z,3.26
2023-04-05T10:17:13.891Z,8.68
2023-04-05T10:18:13.480Z,8.40
2023-04-05T10:19:13.516Z,12.84
2023-04-05T10:20:13.665Z,15.12
2023-04-05T10:21:13.908Z,11.88
2023-04-05T10:22:13.069Z,3.84
2023-04-05T10:23:13.113Z,4.87
2023-04-05T10:24:12.990Z,11.83
2023-04-05T10:25:13.275Z,11.52
2023-04-05T10:26:13.152Z,3.16
2023-04-05T10:27:13.068Z,5.28
2023-04-05T10:28:13.005Z,8.48
2023-04-05T10:29:12.998Z,21.24
2023-04-05T10:30:13.169Z,13.60
2023-04-05T10:31:18.844Z,6.52
2023-04-05T10:32:13.201Z,6.32
2023-04-05T10:33:13.290Z,23.28
2023-04-05T10:34:13.331Z,15.56
2023-04-05T10:35:13.408Z,6.24
2023-04-05T10:36:13.358Z,12.52
2023-04-05T10:37:13.377Z,12.36
2023-04-05T10:38:13.306Z,7.40
2023-04-05T10:40:22.001Z,13.20
2023-04-05T10:41:12.947Z,8.82
2023-04-05T10:42:12.809Z,13.28
2023-04-05T10:43:14.100Z,6.32
2023-04-05T10:44:24.833Z,2.36
2023-04-05T10:45:12.965Z,8.48
2023-04-05T10:46:12.892Z,7.28
2023-04-05T10:47:13.148Z,3.36
2023-04-05T10:48:13.211Z,8.48
2023-04-05T10:49:13.252Z,26.60
2023-04-05T10:50:13.370Z,18.52
2023-04-05T10:51:13.286Z,14.40
2023-04-05T10:52:13.131Z,6.92
2023-04-05T10:53:13.375Z,11.56
2023-04-05T10:54:13.595Z,15.76
2023-04-05T10:55:13.693Z,16.56
2023-04-05T10:56:13.606Z,29.44
2023-04-05T10:57:13.780Z,9.60
2023-04-05T10:58:13.877Z,5.76
2023-04-05T10:59:12.936Z,11.32
2023-04-05T11:00:12.964Z,8.76
2023-04-05T11:01:13.252Z,3.16
2023-04-05T11:02:13.365Z,6.56
2023-04-05T11:03:13.286Z,1.51
2023-04-05T11:04:13.525Z,0.72
2023-04-05T11:05:13.760Z,2.72
2023-04-05T11:06:13.893Z,3.68
2023-04-05T11:07:13.137Z,1.88
2023-04-05T11:08:13.004Z,3.12
2023-04-05T11:09:13.032Z,6.80
2023-04-05T11:10:13.078Z,9.84
2023-04-05T11:11:13.218Z,5.68
2023-04-05T11:12:13.198Z,17.04
2023-04-05T11:13:13.143Z,13.20
2023-04-05T11:14:13.061Z,9.08
2023-04-05T11:15:13.112Z,4.04
2023-04-05T11:16:13.254Z,21.44
2023-04-05T11:17:13.920Z,12.76
2023-04-05T11:18:12.919Z,17.52
2023-04-05T11:19:12.981Z,26.40
2023-04-05T11:20:13.010Z,12.28
2023-04-05T11:21:13.007Z,7.28
2023-04-05T11:22:13.294Z,5.56
2023-04-05T11:23:13.133Z,7.20
2023-04-05T11:24:13.226Z,13.36
2023-04-05T11:25:13.256Z,4.76
2023-04-05T11:26:13.360Z,4.68
2023-04-05T11:27:13.299Z,5.00
2023-04-05T11:28:13.407Z,2.68
2023-04-05T11:29:13.525Z,2.56
2023-04-05T11:30:13.650Z,3.08
2023-04-05T11:31:13.785Z,4.64
2023-04-05T11:32:13.065Z,8.12
2023-04-05T11:33:12.997Z,12.56
2023-04-05T11:34:13.044Z,10.52
2023-04-05T11:35:12.949Z,5.48
2023-04-05T11:36:13.149Z,3.64
2023-04-05T11:37:13.117Z,6.88
2023-04-05T11:38:13.350Z,4.92
2023-04-05T11:39:13.179Z,2.80
2023-04-05T11:40:13.097Z,3.92
2023-04-05T11:41:13.286Z,4.76
2023-04-05T11:42:13.463Z,8.32
2023-04-05T11:43:13.529Z,3.76
2023-04-05T11:44:13.873Z,2.60
2023-04-05T11:45:13.865Z,2.72
2023-04-05T11:46:13.994Z,1.80
2023-04-05T11:47:12.833Z,0.24
2023-04-05T11:48:13.817Z,0.00
2023-04-05T11:49:13.868Z,5.88
2023-04-05T11:50:14.231Z,6.52
2023-04-05T11:51:13.661Z,10.00
2023-04-05T11:52:13.970Z,9.08
2023-04-05T11:53:13.066Z,10.24
2023-04-05T11:54:13.023Z,6.24
2023-04-05T11:55:13.190Z,3.40
2023-04-05T11:56:13.570Z,0.56
2023-04-05T11:57:13.634Z,1.04
2023-04-05T11:58:13.758Z,9.12
2023-04-05T11:59:13.950Z,9.48
2023-04-05T12:00:12.845Z,5.84
2023-04-05T12:01:13.766Z,5.00
2023-04-05T12:02:14.010Z,8.72
2023-04-05T12:03:13.070Z,8.84
2023-04-05T12:04:13.645Z,6.96
2023-04-05T12:05:13.507Z,6.88
2023-04-05T12:06:13.811Z,5.04
2023-04-05T12:07:13.815Z,5.24
2023-04-05T12:08:13.797Z,8.48
2023-04-05T12:09:13.703Z,4.12
2023-04-05T12:10:13.783Z,7.36
2023-04-05T12:11:13.608Z,7.56
2023-04-05T12:12:13.577Z,6.52
2023-04-05T12:13:13.732Z,0.36
2023-04-05T12:14:13.554Z,3.56
2023-04-05T12:15:13.862Z,1.08
2023-04-05T12:16:13.924Z,2.48
2023-04-05T12:17:13.041Z,4.64
2023-04-05T12:18:13.006Z,3.60
2023-04-05T12:19:13.099Z,2.28
2023-04-05T12:20:13.100Z,8.76
2023-04-05T12:21:13.267Z,5.36
2023-04-05T12:22:13.257Z,11.56
2023-04-05T12:23:13.201Z,13.12
2023-04-05T12:24:13.459Z,17.20
2023-04-05T12:25:13.663Z,6.72
2023-04-05T12:26:13.623Z,12.36
2023-04-05T12:27:13.586Z,14.32
2023-04-05T12:28:13.621Z,5.96
2023-04-05T12:29:13.517Z,3.68
2023-04-05T12:30:13.522Z,6.68
2023-04-05T12:31:13.562Z,9.00
2023-04-05T12:32:14.137Z,6.84
2023-04-05T12:33:13.152Z,9.32
2023-04-05T12:34:14.146Z,5.36
2023-04-05T12:35:13.525Z,4.04
2023-04-05T12:36:13.427Z,4.44
2023-04-05T12:37:16.527Z,4.40
2023-04-05T12:38:16.166Z,5.36
2023-04-05T12:39:14.735Z,3.32
2023-04-05T12:40:14.155Z,1.36
2023-04-05T12:41:15.392Z,8.32
2023-04-05T12:42:13.534Z,8.16
2023-04-05T12:43:14.626Z,3.28
2023-04-05T12:44:17.616Z,2.96
2023-04-05T12:45:15.795Z,11.84
2023-04-05T12:46:15.117Z,12.48
2023-04-05T12:47:16.305Z,9.52
2023-04-05T12:48:13.226Z,10.84
2023-04-05T12:49:13.160Z,10.04
2023-04-05T12:50:13.311Z,7.64
2023-04-05T12:51:13.437Z,10.48
2023-04-05T12:52:13.787Z,3.04
2023-04-05T12:53:13.760Z,4.00
2023-04-05T12:54:13.661Z,1.24
2023-04-05T12:55:13.685Z,0.00
2023-04-05T12:56:13.704Z,0.00
2023-04-05T12:57:13.610Z,0.32
2023-04-05T12:58:13.542Z,0.96
2023-04-05T12:59:13.555Z,1.32
2023-04-05T13:00:13.751Z,4.12
2023-04-05T13:01:13.728Z,6.84
2023-04-05T13:02:13.727Z,2.12
2023-04-05T13:03:13.931Z,1.80
2023-04-05T13:04:16.424Z,5.36
2023-04-05T13:05:13.034Z,3.88
2023-04-05T13:06:13.100Z,7.52
2023-04-05T13:07:13.133Z,6.00
2023-04-05T13:08:13.195Z,4.96
2023-04-05T13:09:13.377Z,1.80
2023-04-05T13:10:14.494Z,2.44
2023-04-05T13:11:13.731Z,0.20
2023-04-05T13:12:13.843Z,3.88
2023-04-05T13:13:14.174Z,10.92
2023-04-05T13:14:13.085Z,8.76
2023-04-05T13:15:13.368Z,6.56
2023-04-05T13:16:13.254Z,5.36
2023-04-05T13:17:13.463Z,8.40
2023-04-05T13:18:13.618Z,9.64